sensor_id;sensor_type;location;lat;lon;timestamp;temperature;humidity
2453;DHT22;1238;47.994;7.854;2022-07-29T00:00:15;20.70;99.90
2453;DHT22;1238;47.994;7.854;2022-07-29T00:02:47;20.80;99.90
2453;DHT22;1238;47.994;7.854;2022-07-29T00:05:20;21.10;99.90
2453;DHT22;1238;47.994;7.854;2022-07-29T00:07:52;21.20;99.90
2453;DHT22;1238;47.994;7.854;2022-07-29T00:10:24;20.80;99.90
2453;DHT22;1238;47.994;7.854;2022-07-29T00:12:57;21.00;99.90
2453;DHT22;1238;47.994;7.854;2022-07-29T00:15:29;20.80;99.90
2453;DHT22;1238;47.994;7.854;2022-07-29T00:18:01;20.80;99.90
2453;DHT22;1238;47.994;7.854;2022-07-29T00:20:33;20.90;99.90
2453;DHT22;1238;47.994;7.854;2022-07-29T00:23:06;20.80;99.90
2453;DHT22;1238;47.994;7.854;2022-07-29T00:25:44;20.60;99.90
2453;DHT22;1238;47.994;7.854;2022-07-29T00:28:16;20.80;99.90
2453;DHT22;1238;47.994;7.854;2022-07-29T00:30:48;20.80;99.90
2453;DHT22;1238;47.994;7.854;2022-07-29T00:33:20;20.50;99.90
2453;DHT22;1238;47.994;7.854;2022-07-29T00:35:54;20.60;99.90
2453;DHT22;1238;47.994;7.854;2022-07-29T00:38:28;20.40;99.90
2453;DHT22;1238;47.994;7.854;2022-07-29T00:41:00;20.50;99.90
2453;DHT22;1238;47.994;7.854;2022-07-29T00:43:32;20.70;99.90
2453;DHT22;1238;47.994;7.854;2022-07-29T00:46:04;20.70;99.90
2453;DHT22;1238;47.994;7.854;2022-07-29T00:48:37;20.50;99.90
2453;DHT22;1238;47.994;7.854;2022-07-29T00:51:10;20.50;99.90
2453;DHT22;1238;47.994;7.854;2022-07-29T00:53:43;20.50;99.90
2453;DHT22;1238;47.994;7.854;2022-07-29T00:56:15;20.60;99.90
2453;DHT22;1238;47.994;7.854;2022-07-29T00:58:48;20.10;99.90
2453;DHT22;1238;47.994;7.854;2022-07-29T01:01:22;19.90;99.90
2453;DHT22;1238;47.994;7.854;2022-07-29T01:03:55;19.90;99.90
2453;DHT22;1238;47.994;7.854;2022-07-29T01:06:27;20.00;99.90
2453;DHT22;1238;47.994;7.854;2022-07-29T01:09:00;20.00;99.90
2453;DHT22;1238;47.994;7.854;2022-07-29T01:11:33;20.00;99.90
2453;DHT22;1238;47.994;7.854;2022-07-29T01:14:09;20.20;99.90
2453;DHT22;1238;47.994;7.854;2022-07-29T01:16:49;20.20;99.90
2453;DHT22;1238;47.994;7.854;2022-07-29T01:25:17;20.40;99.90
2453;DHT22;1238;47.994;7.854;2022-07-29T01:28:55;20.20;99.90
2453;DHT22;1238;47.994;7.854;2022-07-29T01:31:03;20.20;99.90
2453;DHT22;1238;47.994;7.854;2022-07-29T01:33:41;20.00;99.90
2453;DHT22;1238;47.994;7.854;2022-07-29T01:36:43;20.30;99.90
2453;DHT22;1238;47.994;7.854;2022-07-29T01:39:31;19.60;99.90
2453;DHT22;1238;47.994;7.854;2022-07-29T01:42:27;19.90;99.90
2453;DHT22;1238;47.994;7.854;2022-07-29T01:45:02;19.40;99.90
2453;DHT22;1238;47.994;7.854;2022-07-29T01:47:44;20.10;99.90
2453;DHT22;1238;47.994;7.854;2022-07-29T01:50:20;20.10;99.90
2453;DHT22;1238;47.994;7.854;2022-07-29T01:53:00;19.70;99.90
2453;DHT22;1238;47.994;7.854;2022-07-29T01:55:40;19.80;99.90
2453;DHT22;1238;47.994;7.854;2022-07-29T01:58:15;19.90;99.90
2453;DHT22;1238;47.994;7.854;2022-07-29T02:00:50;20.40;99.90
2453;DHT22;1238;47.994;7.854;2022-07-29T02:03:24;19.70;99.90
2453;DHT22;1238;47.994;7.854;2022-07-29T02:05:58;19.90;99.90
2453;DHT22;1238;47.994;7.854;2022-07-29T02:08:32;20.20;99.90
2453;DHT22;1238;47.994;7.854;2022-07-29T02:11:06;20.20;99.90
2453;DHT22;1238;47.994;7.854;2022-07-29T02:13:39;19.90;99.90
2453;DHT22;1238;47.994;7.854;2022-07-29T02:16:14;20.10;99.90
2453;DHT22;1238;47.994;7.854;2022-07-29T02:18:51;19.90;99.90
2453;DHT22;1238;47.994;7.854;2022-07-29T02:21:25;20.00;99.90
2453;DHT22;1238;47.994;7.854;2022-07-29T02:24:00;20.40;99.90
2453;DHT22;1238;47.994;7.854;2022-07-29T02:26:33;20.20;99.90
2453;DHT22;1238;47.994;7.854;2022-07-29T02:29:06;20.40;99.90
2453;DHT22;1238;47.994;7.854;2022-07-29T02:31:41;20.00;99.90
2453;DHT22;1238;47.994;7.854;2022-07-29T02:34:16;20.40;99.90
2453;DHT22;1238;47.994;7.854;2022-07-29T02:36:51;20.50;99.90
2453;DHT22;1238;47.994;7.854;2022-07-29T02:39:25;20.00;99.90
2453;DHT22;1238;47.994;7.854;2022-07-29T02:42:03;20.00;99.90
2453;DHT22;1238;47.994;7.854;2022-07-29T02:44:35;20.00;99.90
2453;DHT22;1238;47.994;7.854;2022-07-29T02:47:30;19.70;99.90
2453;DHT22;1238;47.994;7.854;2022-07-29T02:50:17;19.80;99.90
2453;DHT22;1238;47.994;7.854;2022-07-29T02:53:02;20.10;99.90
2453;DHT22;1238;47.994;7.854;2022-07-29T02:55:45;20.10;99.90
2453;DHT22;1238;47.994;7.854;2022-07-29T02:58:29;20.00;99.90
2453;DHT22;1238;47.994;7.854;2022-07-29T03:01:15;20.20;99.90
2453;DHT22;1238;47.994;7.854;2022-07-29T03:03:53;20.20;99.90
2453;DHT22;1238;47.994;7.854;2022-07-29T03:06:26;19.90;99.90
2453;DHT22;1238;47.994;7.854;2022-07-29T03:09:10;20.20;99.90
2453;DHT22;1238;47.994;7.854;2022-07-29T03:11:45;20.20;99.90
2453;DHT22;1238;47.994;7.854;2022-07-29T03:14:21;20.00;99.90
2453;DHT22;1238;47.994;7.854;2022-07-29T03:16:55;19.70;99.90
2453;DHT22;1238;47.994;7.854;2022-07-29T03:19:28;19.40;99.90
2453;DHT22;1238;47.994;7.854;2022-07-29T03:22:01;19.30;99.90
2453;DHT22;1238;47.994;7.854;2022-07-29T03:24:36;19.50;99.90
2453;DHT22;1238;47.994;7.854;2022-07-29T03:27:08;20.10;99.90
2453;DHT22;1238;47.994;7.854;2022-07-29T03:29:40;20.20;99.90
2453;DHT22;1238;47.994;7.854;2022-07-29T03:32:21;19.80;99.90
2453;DHT22;1238;47.994;7.854;2022-07-29T03:34:55;19.90;99.90
2453;DHT22;1238;47.994;7.854;2022-07-29T03:37:28;19.80;99.90
2453;DHT22;1238;47.994;7.854;2022-07-29T03:40:05;19.60;99.90
2453;DHT22;1238;47.994;7.854;2022-07-29T03:42:40;19.70;99.90
2453;DHT22;1238;47.994;7.854;2022-07-29T03:45:17;19.90;99.90
2453;DHT22;1238;47.994;7.854;2022-07-29T03:47:55;20.00;99.90
2453;DHT22;1238;47.994;7.854;2022-07-29T03:50:33;19.90;99.90
2453;DHT22;1238;47.994;7.854;2022-07-29T03:53:05;20.40;99.90
2453;DHT22;1238;47.994;7.854;2022-07-29T03:55:43;20.30;99.90
2453;DHT22;1238;47.994;7.854;2022-07-29T03:58:18;20.00;99.90
2453;DHT22;1238;47.994;7.854;2022-07-29T04:00:51;20.00;99.90
2453;DHT22;1238;47.994;7.854;2022-07-29T04:03:24;20.00;99.90
2453;DHT22;1238;47.994;7.854;2022-07-29T04:06:04;20.00;99.90
2453;DHT22;1238;47.994;7.854;2022-07-29T04:08:39;19.90;99.90
2453;DHT22;1238;47.994;7.854;2022-07-29T04:11:12;19.50;99.90
2453;DHT22;1238;47.994;7.854;2022-07-29T04:13:44;19.30;99.90
2453;DHT22;1238;47.994;7.854;2022-07-29T04:16:16;19.30;99.90
2453;DHT22;1238;47.994;7.854;2022-07-29T04:18:49;19.50;99.90
2453;DHT22;1238;47.994;7.854;2022-07-29T04:21:21;19.70;99.90
2453;DHT22;1238;47.994;7.854;2022-07-29T04:23:53;19.50;99.90
2453;DHT22;1238;47.994;7.854;2022-07-29T04:26:25;19.60;99.90
2453;DHT22;1238;47.994;7.854;2022-07-29T04:28:57;19.60;99.90
2453;DHT22;1238;47.994;7.854;2022-07-29T04:31:30;19.80;99.90
2453;DHT22;1238;47.994;7.854;2022-07-29T04:34:02;19.60;99.90
2453;DHT22;1238;47.994;7.854;2022-07-29T04:36:34;19.80;99.90
2453;DHT22;1238;47.994;7.854;2022-07-29T04:39:06;19.90;99.90
2453;DHT22;1238;47.994;7.854;2022-07-29T04:41:39;19.80;99.90
2453;DHT22;1238;47.994;7.854;2022-07-29T04:44:11;19.80;99.90
2453;DHT22;1238;47.994;7.854;2022-07-29T04:46:44;19.80;99.90
2453;DHT22;1238;47.994;7.854;2022-07-29T04:49:17;20.10;99.90
2453;DHT22;1238;47.994;7.854;2022-07-29T04:51:50;20.00;99.90
2453;DHT22;1238;47.994;7.854;2022-07-29T04:54:22;20.20;99.90
2453;DHT22;1238;47.994;7.854;2022-07-29T04:56:56;20.20;99.90
2453;DHT22;1238;47.994;7.854;2022-07-29T04:59:29;20.20;99.90
2453;DHT22;1238;47.994;7.854;2022-07-29T05:02:01;20.30;99.90
2453;DHT22;1238;47.994;7.854;2022-07-29T05:04:33;20.20;99.90
2453;DHT22;1238;47.994;7.854;2022-07-29T05:07:05;20.20;99.90
2453;DHT22;1238;47.994;7.854;2022-07-29T05:09:38;20.10;99.90
2453;DHT22;1238;47.994;7.854;2022-07-29T05:12:10;19.70;99.90
2453;DHT22;1238;47.994;7.854;2022-07-29T05:14:42;19.80;99.90
2453;DHT22;1238;47.994;7.854;2022-07-29T05:17:14;19.90;99.90
2453;DHT22;1238;47.994;7.854;2022-07-29T05:19:46;19.40;99.90
2453;DHT22;1238;47.994;7.854;2022-07-29T05:22:20;19.50;99.90
2453;DHT22;1238;47.994;7.854;2022-07-29T05:24:52;19.60;99.90
2453;DHT22;1238;47.994;7.854;2022-07-29T05:27:24;19.80;99.90
2453;DHT22;1238;47.994;7.854;2022-07-29T05:29:58;19.80;99.90
2453;DHT22;1238;47.994;7.854;2022-07-29T05:32:30;19.70;99.90
2453;DHT22;1238;47.994;7.854;2022-07-29T05:35:02;19.60;99.90
2453;DHT22;1238;47.994;7.854;2022-07-29T05:37:34;19.40;99.90
2453;DHT22;1238;47.994;7.854;2022-07-29T05:40:08;19.60;99.90
2453;DHT22;1238;47.994;7.854;2022-07-29T05:42:40;19.30;99.90
2453;DHT22;1238;47.994;7.854;2022-07-29T05:45:13;19.10;99.90
2453;DHT22;1238;47.994;7.854;2022-07-29T05:47:45;19.50;99.90
2453;DHT22;1238;47.994;7.854;2022-07-29T05:50:17;19.50;99.90
2453;DHT22;1238;47.994;7.854;2022-07-29T05:52:50;19.20;99.90
2453;DHT22;1238;47.994;7.854;2022-07-29T05:55:22;19.50;99.90
2453;DHT22;1238;47.994;7.854;2022-07-29T05:57:54;19.60;99.90
2453;DHT22;1238;47.994;7.854;2022-07-29T06:00:27;19.50;99.90
2453;DHT22;1238;47.994;7.854;2022-07-29T06:03:00;19.60;99.90
2453;DHT22;1238;47.994;7.854;2022-07-29T06:05:33;19.50;99.90
2453;DHT22;1238;47.994;7.854;2022-07-29T06:08:05;19.50;99.90
2453;DHT22;1238;47.994;7.854;2022-07-29T06:10:39;19.50;99.90
2453;DHT22;1238;47.994;7.854;2022-07-29T06:13:11;19.40;99.90
2453;DHT22;1238;47.994;7.854;2022-07-29T06:15:43;19.40;99.90
2453;DHT22;1238;47.994;7.854;2022-07-29T06:18:16;19.70;99.90
2453;DHT22;1238;47.994;7.854;2022-07-29T06:20:48;19.90;99.90
2453;DHT22;1238;47.994;7.854;2022-07-29T06:23:20;20.10;99.90
2453;DHT22;1238;47.994;7.854;2022-07-29T06:25:53;20.20;99.90
2453;DHT22;1238;47.994;7.854;2022-07-29T06:28:25;20.20;99.90
2453;DHT22;1238;47.994;7.854;2022-07-29T06:30:58;20.60;99.90
2453;DHT22;1238;47.994;7.854;2022-07-29T06:33:30;20.70;99.90
2453;DHT22;1238;47.994;7.854;2022-07-29T06:36:03;20.90;99.90
2453;DHT22;1238;47.994;7.854;2022-07-29T06:38:36;21.10;99.90
2453;DHT22;1238;47.994;7.854;2022-07-29T06:41:16;21.40;99.90
2453;DHT22;1238;47.994;7.854;2022-07-29T06:43:48;21.50;99.90
2453;DHT22;1238;47.994;7.854;2022-07-29T06:46:27;21.40;99.90
2453;DHT22;1238;47.994;7.854;2022-07-29T06:48:59;21.50;99.90
2453;DHT22;1238;47.994;7.854;2022-07-29T06:51:33;21.40;99.90
2453;DHT22;1238;47.994;7.854;2022-07-29T06:54:06;21.60;99.90
2453;DHT22;1238;47.994;7.854;2022-07-29T06:56:40;21.60;99.90
2453;DHT22;1238;47.994;7.854;2022-07-29T06:59:13;21.80;99.90
2453;DHT22;1238;47.994;7.854;2022-07-29T07:01:45;21.70;99.90
2453;DHT22;1238;47.994;7.854;2022-07-29T07:04:17;22.10;99.90
2453;DHT22;1238;47.994;7.854;2022-07-29T07:06:51;22.50;99.90
2453;DHT22;1238;47.994;7.854;2022-07-29T07:09:24;22.30;99.90
2453;DHT22;1238;47.994;7.854;2022-07-29T07:12:11;22.30;99.90
2453;DHT22;1238;47.994;7.854;2022-07-29T07:14:44;22.40;99.90
2453;DHT22;1238;47.994;7.854;2022-07-29T07:17:16;22.50;99.90
2453;DHT22;1238;47.994;7.854;2022-07-29T07:19:48;22.50;99.90
2453;DHT22;1238;47.994;7.854;2022-07-29T07:22:20;22.60;99.90
2453;DHT22;1238;47.994;7.854;2022-07-29T07:24:52;22.70;99.90
2453;DHT22;1238;47.994;7.854;2022-07-29T07:27:24;23.20;99.90
2453;DHT22;1238;47.994;7.854;2022-07-29T07:29:56;23.70;99.90
2453;DHT22;1238;47.994;7.854;2022-07-29T07:32:29;24.00;99.90
2453;DHT22;1238;47.994;7.854;2022-07-29T07:35:00;24.30;99.90
2453;DHT22;1238;47.994;7.854;2022-07-29T07:37:33;24.00;99.90
2453;DHT22;1238;47.994;7.854;2022-07-29T07:40:05;23.90;99.90
2453;DHT22;1238;47.994;7.854;2022-07-29T07:42:38;23.70;99.90
2453;DHT22;1238;47.994;7.854;2022-07-29T07:45:13;23.90;99.90
2453;DHT22;1238;47.994;7.854;2022-07-29T07:47:47;24.10;99.90
2453;DHT22;1238;47.994;7.854;2022-07-29T07:50:19;24.40;99.90
2453;DHT22;1238;47.994;7.854;2022-07-29T07:52:53;23.90;99.90
2453;DHT22;1238;47.994;7.854;2022-07-29T07:55:26;24.00;99.90
2453;DHT22;1238;47.994;7.854;2022-07-29T07:57:58;23.80;99.90
2453;DHT22;1238;47.994;7.854;2022-07-29T08:00:30;23.80;99.90
2453;DHT22;1238;47.994;7.854;2022-07-29T08:03:03;23.90;99.90
2453;DHT22;1238;47.994;7.854;2022-07-29T08:05:47;24.10;99.90
2453;DHT22;1238;47.994;7.854;2022-07-29T08:08:20;24.20;99.90
2453;DHT22;1238;47.994;7.854;2022-07-29T08:10:52;24.00;99.90
2453;DHT22;1238;47.994;7.854;2022-07-29T08:13:24;24.30;99.90
2453;DHT22;1238;47.994;7.854;2022-07-29T08:15:58;23.80;99.90
2453;DHT22;1238;47.994;7.854;2022-07-29T08:18:32;24.00;99.90
2453;DHT22;1238;47.994;7.854;2022-07-29T08:21:04;24.20;99.90
2453;DHT22;1238;47.994;7.854;2022-07-29T08:23:36;24.60;99.90
2453;DHT22;1238;47.994;7.854;2022-07-29T08:26:23;25.00;99.90
2453;DHT22;1238;47.994;7.854;2022-07-29T08:28:55;25.30;99.90
2453;DHT22;1238;47.994;7.854;2022-07-29T08:31:27;25.80;99.90
2453;DHT22;1238;47.994;7.854;2022-07-29T08:33:59;25.80;99.90
2453;DHT22;1238;47.994;7.854;2022-07-29T08:36:32;25.90;99.90
2453;DHT22;1238;47.994;7.854;2022-07-29T08:39:05;26.20;99.90
2453;DHT22;1238;47.994;7.854;2022-07-29T08:41:37;26.80;99.90
2453;DHT22;1238;47.994;7.854;2022-07-29T08:44:28;26.80;99.90
2453;DHT22;1238;47.994;7.854;2022-07-29T08:47:02;26.90;99.90
2453;DHT22;1238;47.994;7.854;2022-07-29T08:49:35;27.10;99.90
2453;DHT22;1238;47.994;7.854;2022-07-29T08:52:10;27.10;99.90
2453;DHT22;1238;47.994;7.854;2022-07-29T08:54:43;26.30;99.90
2453;DHT22;1238;47.994;7.854;2022-07-29T08:57:16;26.00;99.90
2453;DHT22;1238;47.994;7.854;2022-07-29T08:59:52;26.00;99.90
2453;DHT22;1238;47.994;7.854;2022-07-29T09:02:29;26.00;99.90
2453;DHT22;1238;47.994;7.854;2022-07-29T09:05:07;25.60;99.90
2453;DHT22;1238;47.994;7.854;2022-07-29T09:07:40;25.90;99.90
2453;DHT22;1238;47.994;7.854;2022-07-29T09:10:14;25.90;99.90
2453;DHT22;1238;47.994;7.854;2022-07-29T09:12:47;25.60;99.90
2453;DHT22;1238;47.994;7.854;2022-07-29T09:15:20;25.80;99.90
2453;DHT22;1238;47.994;7.854;2022-07-29T09:17:52;26.00;99.60
2453;DHT22;1238;47.994;7.854;2022-07-29T09:20:27;25.60;99.90
2453;DHT22;1238;47.994;7.854;2022-07-29T09:23:19;25.30;99.90
2453;DHT22;1238;47.994;7.854;2022-07-29T09:25:55;25.60;99.20
2453;DHT22;1238;47.994;7.854;2022-07-29T09:28:27;27.90;99.70
2453;DHT22;1238;47.994;7.854;2022-07-29T09:30:59;25.80;98.70
2453;DHT22;1238;47.994;7.854;2022-07-29T09:33:32;26.00;98.20
2453;DHT22;1238;47.994;7.854;2022-07-29T09:36:09;27.10;98.20
2453;DHT22;1238;47.994;7.854;2022-07-29T09:38:41;26.50;97.70
2453;DHT22;1238;47.994;7.854;2022-07-29T09:41:13;26.60;97.20
2453;DHT22;1238;47.994;7.854;2022-07-29T09:43:59;26.50;96.70
2453;DHT22;1238;47.994;7.854;2022-07-29T09:46:31;26.10;97.20
2453;DHT22;1238;47.994;7.854;2022-07-29T09:51:40;26.10;97.10
2453;DHT22;1238;47.994;7.854;2022-07-29T09:56:55;26.30;96.50
2453;DHT22;1238;47.994;7.854;2022-07-29T09:59:28;26.50;95.80
2453;DHT22;1238;47.994;7.854;2022-07-29T10:02:01;26.50;96.00
2453;DHT22;1238;47.994;7.854;2022-07-29T10:04:40;26.70;95.90
2453;DHT22;1238;47.994;7.854;2022-07-29T10:07:13;26.80;95.30
2453;DHT22;1238;47.994;7.854;2022-07-29T10:09:56;26.90;95.10
2453;DHT22;1238;47.994;7.854;2022-07-29T10:12:29;26.40;95.30
2453;DHT22;1238;47.994;7.854;2022-07-29T10:15:02;26.50;95.30
2453;DHT22;1238;47.994;7.854;2022-07-29T10:17:34;26.10;95.60
2453;DHT22;1238;47.994;7.854;2022-07-29T10:20:12;26.60;95.60
2453;DHT22;1238;47.994;7.854;2022-07-29T10:22:48;27.60;95.80
2453;DHT22;1238;47.994;7.854;2022-07-29T10:25:25;26.90;95.20
2453;DHT22;1238;47.994;7.854;2022-07-29T10:27:58;26.90;95.10
2453;DHT22;1238;47.994;7.854;2022-07-29T10:30:31;26.80;94.80
2453;DHT22;1238;47.994;7.854;2022-07-29T10:36:07;27.00;94.70
2453;DHT22;1238;47.994;7.854;2022-07-29T10:44:23;27.60;93.40
2453;DHT22;1238;47.994;7.854;2022-07-29T10:46:56;27.20;93.60
2453;DHT22;1238;47.994;7.854;2022-07-29T10:49:30;27.50;93.60
2453;DHT22;1238;47.994;7.854;2022-07-29T10:52:05;27.90;93.30
2453;DHT22;1238;47.994;7.854;2022-07-29T10:54:48;27.60;93.40
2453;DHT22;1238;47.994;7.854;2022-07-29T10:57:28;27.30;93.00
2453;DHT22;1238;47.994;7.854;2022-07-29T11:00:29;27.10;93.70
2453;DHT22;1238;47.994;7.854;2022-07-29T11:03:02;27.10;93.20
2453;DHT22;1238;47.994;7.854;2022-07-29T11:08:26;27.60;93.10
2453;DHT22;1238;47.994;7.854;2022-07-29T11:13:53;27.40;92.80
2453;DHT22;1238;47.994;7.854;2022-07-29T11:17:21;27.10;93.60
2453;DHT22;1238;47.994;7.854;2022-07-29T11:19:47;27.20;93.60
2453;DHT22;1238;47.994;7.854;2022-07-29T11:22:36;27.80;92.80
2453;DHT22;1238;47.994;7.854;2022-07-29T11:25:19;27.40;93.00
2453;DHT22;1238;47.994;7.854;2022-07-29T11:28:18;27.30;93.20
2453;DHT22;1238;47.994;7.854;2022-07-29T11:30:54;27.30;93.40
2453;DHT22;1238;47.994;7.854;2022-07-29T11:33:30;27.40;93.10
2453;DHT22;1238;47.994;7.854;2022-07-29T11:36:23;27.50;92.90
2453;DHT22;1238;47.994;7.854;2022-07-29T11:39:25;26.90;93.10
2453;DHT22;1238;47.994;7.854;2022-07-29T11:45:23;27.20;92.70
2453;DHT22;1238;47.994;7.854;2022-07-29T11:48:17;26.80;92.80
2453;DHT22;1238;47.994;7.854;2022-07-29T11:51:09;27.10;92.90
2453;DHT22;1238;47.994;7.854;2022-07-29T11:53:47;27.80;93.10
2453;DHT22;1238;47.994;7.854;2022-07-29T11:56:23;27.10;93.00
2453;DHT22;1238;47.994;7.854;2022-07-29T11:59:07;27.30;93.00
2453;DHT22;1238;47.994;7.854;2022-07-29T12:01:56;27.30;92.80
2453;DHT22;1238;47.994;7.854;2022-07-29T12:04:53;27.10;92.90
2453;DHT22;1238;47.994;7.854;2022-07-29T12:07:32;26.70;93.60
2453;DHT22;1238;47.994;7.854;2022-07-29T12:10:08;26.30;93.90
2453;DHT22;1238;47.994;7.854;2022-07-29T12:12:53;26.20;94.60
2453;DHT22;1238;47.994;7.854;2022-07-29T12:15:26;26.50;94.30
2453;DHT22;1238;47.994;7.854;2022-07-29T12:18:19;26.90;94.10
2453;DHT22;1238;47.994;7.854;2022-07-29T12:21:02;26.80;93.90
2453;DHT22;1238;47.994;7.854;2022-07-29T12:23:36;27.10;93.70
2453;DHT22;1238;47.994;7.854;2022-07-29T12:26:08;27.30;93.30
2453;DHT22;1238;47.994;7.854;2022-07-29T12:28:42;27.20;93.40
2453;DHT22;1238;47.994;7.854;2022-07-29T12:31:17;27.00;93.60
2453;DHT22;1238;47.994;7.854;2022-07-29T12:34:14;27.10;93.90
2453;DHT22;1238;47.994;7.854;2022-07-29T12:36:48;27.10;93.50
2453;DHT22;1238;47.994;7.854;2022-07-29T12:39:20;27.00;93.80
2453;DHT22;1238;47.994;7.854;2022-07-29T12:41:54;26.60;94.10
2453;DHT22;1238;47.994;7.854;2022-07-29T12:44:49;27.10;94.20
2453;DHT22;1238;47.994;7.854;2022-07-29T12:47:22;27.20;93.70
2453;DHT22;1238;47.994;7.854;2022-07-29T12:50:14;26.80;94.00
2453;DHT22;1238;47.994;7.854;2022-07-29T12:53:08;26.70;93.50
2453;DHT22;1238;47.994;7.854;2022-07-29T12:55:44;27.10;92.90
2453;DHT22;1238;47.994;7.854;2022-07-29T12:58:39;27.00;92.50
2453;DHT22;1238;47.994;7.854;2022-07-29T13:01:14;27.10;92.10
2453;DHT22;1238;47.994;7.854;2022-07-29T13:03:58;26.90;92.20
2453;DHT22;1238;47.994;7.854;2022-07-29T13:06:42;26.80;92.20
2453;DHT22;1238;47.994;7.854;2022-07-29T13:09:20;27.10;92.30
2453;DHT22;1238;47.994;7.854;2022-07-29T13:11:55;27.10;92.50
2453;DHT22;1238;47.994;7.854;2022-07-29T13:17:12;27.10;92.40
2453;DHT22;1238;47.994;7.854;2022-07-29T13:22:23;26.60;92.30
2453;DHT22;1238;47.994;7.854;2022-07-29T13:24:57;26.50;92.20
2453;DHT22;1238;47.994;7.854;2022-07-29T13:27:32;26.40;92.10
2453;DHT22;1238;47.994;7.854;2022-07-29T13:30:07;26.00;92.50
2453;DHT22;1238;47.994;7.854;2022-07-29T13:32:39;26.10;92.30
2453;DHT22;1238;47.994;7.854;2022-07-29T13:35:11;26.30;92.40
2453;DHT22;1238;47.994;7.854;2022-07-29T13:37:45;26.10;92.40
2453;DHT22;1238;47.994;7.854;2022-07-29T13:40:18;27.90;92.60
2453;DHT22;1238;47.994;7.854;2022-07-29T13:42:50;26.10;91.60
2453;DHT22;1238;47.994;7.854;2022-07-29T13:45:22;26.20;91.90
2453;DHT22;1238;47.994;7.854;2022-07-29T13:47:59;26.20;92.00
2453;DHT22;1238;47.994;7.854;2022-07-29T13:50:32;26.60;91.50
2453;DHT22;1238;47.994;7.854;2022-07-29T13:53:05;27.00;91.60
2453;DHT22;1238;47.994;7.854;2022-07-29T13:55:37;26.50;91.30
2453;DHT22;1238;47.994;7.854;2022-07-29T13:58:10;26.40;91.70
2453;DHT22;1238;47.994;7.854;2022-07-29T14:00:42;27.70;92.20
2453;DHT22;1238;47.994;7.854;2022-07-29T14:03:14;26.90;91.80
2453;DHT22;1238;47.994;7.854;2022-07-29T14:05:46;27.00;91.80
2453;DHT22;1238;47.994;7.854;2022-07-29T14:08:19;26.60;92.00
2453;DHT22;1238;47.994;7.854;2022-07-29T14:10:51;27.10;92.90
2453;DHT22;1238;47.994;7.854;2022-07-29T14:13:23;26.40;92.90
2453;DHT22;1238;47.994;7.854;2022-07-29T14:15:57;26.80;93.00
2453;DHT22;1238;47.994;7.854;2022-07-29T14:18:29;26.40;93.20
2453;DHT22;1238;47.994;7.854;2022-07-29T14:21:02;26.40;93.50
2453;DHT22;1238;47.994;7.854;2022-07-29T14:23:35;26.40;93.40
2453;DHT22;1238;47.994;7.854;2022-07-29T14:26:07;26.30;93.20
2453;DHT22;1238;47.994;7.854;2022-07-29T14:28:47;26.40;93.20
2453;DHT22;1238;47.994;7.854;2022-07-29T14:31:18;26.30;92.80
2453;DHT22;1238;47.994;7.854;2022-07-29T14:33:51;26.20;92.00
2453;DHT22;1238;47.994;7.854;2022-07-29T14:36:23;26.40;91.60
2453;DHT22;1238;47.994;7.854;2022-07-29T14:38:56;26.30;91.60
2453;DHT22;1238;47.994;7.854;2022-07-29T14:41:28;26.30;91.40
2453;DHT22;1238;47.994;7.854;2022-07-29T14:44:00;26.90;91.30
2453;DHT22;1238;47.994;7.854;2022-07-29T14:46:33;26.40;91.00
2453;DHT22;1238;47.994;7.854;2022-07-29T14:49:06;26.00;90.50
2453;DHT22;1238;47.994;7.854;2022-07-29T14:51:40;26.70;91.00
2453;DHT22;1238;47.994;7.854;2022-07-29T14:54:12;26.50;91.00
2453;DHT22;1238;47.994;7.854;2022-07-29T14:56:44;26.00;90.80
2453;DHT22;1238;47.994;7.854;2022-07-29T14:59:18;26.30;90.40
2453;DHT22;1238;47.994;7.854;2022-07-29T15:01:51;27.20;90.30
2453;DHT22;1238;47.994;7.854;2022-07-29T15:04:23;26.00;88.00
2453;DHT22;1238;47.994;7.854;2022-07-29T15:06:55;26.10;87.50
2453;DHT22;1238;47.994;7.854;2022-07-29T15:09:29;27.70;88.70
2453;DHT22;1238;47.994;7.854;2022-07-29T15:12:01;26.00;86.70
2453;DHT22;1238;47.994;7.854;2022-07-29T15:14:34;26.50;86.60
2453;DHT22;1238;47.994;7.854;2022-07-29T15:17:07;27.50;87.20
2453;DHT22;1238;47.994;7.854;2022-07-29T15:19:40;25.90;85.80
2453;DHT22;1238;47.994;7.854;2022-07-29T15:22:16;25.90;85.40
2453;DHT22;1238;47.994;7.854;2022-07-29T15:24:48;26.00;85.30
2453;DHT22;1238;47.994;7.854;2022-07-29T15:27:21;25.90;84.60
2453;DHT22;1238;47.994;7.854;2022-07-29T15:29:53;25.80;85.40
2453;DHT22;1238;47.994;7.854;2022-07-29T15:32:26;25.90;85.50
2453;DHT22;1238;47.994;7.854;2022-07-29T15:34:59;26.10;84.80
2453;DHT22;1238;47.994;7.854;2022-07-29T15:37:31;26.10;84.00
2453;DHT22;1238;47.994;7.854;2022-07-29T15:40:20;26.40;83.90
2453;DHT22;1238;47.994;7.854;2022-07-29T15:42:53;26.40;83.50
2453;DHT22;1238;47.994;7.854;2022-07-29T15:45:26;26.40;83.40
2453;DHT22;1238;47.994;7.854;2022-07-29T15:48:05;26.40;83.40
2453;DHT22;1238;47.994;7.854;2022-07-29T15:50:38;26.40;82.60
2453;DHT22;1238;47.994;7.854;2022-07-29T15:53:10;26.20;83.10
2453;DHT22;1238;47.994;7.854;2022-07-29T15:55:42;26.20;82.30
2453;DHT22;1238;47.994;7.854;2022-07-29T15:58:15;26.20;82.40
2453;DHT22;1238;47.994;7.854;2022-07-29T16:00:48;26.40;82.00
2453;DHT22;1238;47.994;7.854;2022-07-29T16:03:19;26.40;81.40
2453;DHT22;1238;47.994;7.854;2022-07-29T16:05:53;26.50;81.10
2453;DHT22;1238;47.994;7.854;2022-07-29T16:08:26;26.70;80.70
2453;DHT22;1238;47.994;7.854;2022-07-29T16:10:58;26.60;80.50
2453;DHT22;1238;47.994;7.854;2022-07-29T16:13:30;26.90;80.10
2453;DHT22;1238;47.994;7.854;2022-07-29T16:16:02;26.80;80.00
2453;DHT22;1238;47.994;7.854;2022-07-29T16:18:35;26.90;80.30
2453;DHT22;1238;47.994;7.854;2022-07-29T16:21:07;27.20;78.70
2453;DHT22;1238;47.994;7.854;2022-07-29T16:23:39;27.10;78.20
2453;DHT22;1238;47.994;7.854;2022-07-29T16:26:12;27.20;78.70
2453;DHT22;1238;47.994;7.854;2022-07-29T16:28:44;27.10;78.10
2453;DHT22;1238;47.994;7.854;2022-07-29T16:31:18;27.60;78.30
2453;DHT22;1238;47.994;7.854;2022-07-29T16:33:56;27.70;78.50
2453;DHT22;1238;47.994;7.854;2022-07-29T16:36:28;26.60;77.60
2453;DHT22;1238;47.994;7.854;2022-07-29T16:39:00;26.60;77.50
2453;DHT22;1238;47.994;7.854;2022-07-29T16:41:33;26.60;77.40
2453;DHT22;1238;47.994;7.854;2022-07-29T16:44:05;26.70;77.40
2453;DHT22;1238;47.994;7.854;2022-07-29T16:46:37;27.00;77.00
2453;DHT22;1238;47.994;7.854;2022-07-29T16:49:12;28.20;76.90
2453;DHT22;1238;47.994;7.854;2022-07-29T16:51:50;28.20;76.70
2453;DHT22;1238;47.994;7.854;2022-07-29T16:54:22;27.30;75.80
2453;DHT22;1238;47.994;7.854;2022-07-29T16:56:55;27.10;75.00
2453;DHT22;1238;47.994;7.854;2022-07-29T16:59:28;27.10;75.50
2453;DHT22;1238;47.994;7.854;2022-07-29T17:02:01;27.20;75.70
2453;DHT22;1238;47.994;7.854;2022-07-29T17:04:33;27.10;74.30
2453;DHT22;1238;47.994;7.854;2022-07-29T17:07:06;27.00;74.90
2453;DHT22;1238;47.994;7.854;2022-07-29T17:09:39;27.00;74.40
2453;DHT22;1238;47.994;7.854;2022-07-29T17:12:11;27.00;74.20
2453;DHT22;1238;47.994;7.854;2022-07-29T17:14:45;28.00;75.40
2453;DHT22;1238;47.994;7.854;2022-07-29T17:17:17;27.00;74.00
2453;DHT22;1238;47.994;7.854;2022-07-29T17:20:10;26.90;74.00
2453;DHT22;1238;47.994;7.854;2022-07-29T17:22:48;26.80;73.80
2453;DHT22;1238;47.994;7.854;2022-07-29T17:25:20;26.70;74.10
2453;DHT22;1238;47.994;7.854;2022-07-29T17:27:53;26.80;74.40